sensor_id;sensor_type;location;lat;lon;timestamp;P1;durP1;ratioP1;P2;durP2;ratioP2
21034;SDS011;10676;50.848;3.272;2022-09-09T00:04:48;11.07;;;5.82;;
21034;SDS011;10676;50.848;3.272;2022-09-09T00:07:15;10.77;;;5.63;;
21034;SDS011;10676;50.848;3.272;2022-09-09T00:15:12;10.98;;;6.95;;
21034;SDS011;10676;50.848;3.272;2022-09-09T00:20:19;10.27;;;5.95;;
21034;SDS011;10676;50.848;3.272;2022-09-09T00:22:57;11.45;;;5.80;;
21034;SDS011;10676;50.848;3.272;2022-09-09T00:28:20;13.20;;;6.28;;
21034;SDS011;10676;50.848;3.272;2022-09-09T00:30:51;10.75;;;5.90;;
21034;SDS011;10676;50.848;3.272;2022-09-09T00:33:19;12.60;;;6.80;;
21034;SDS011;10676;50.848;3.272;2022-09-09T00:35:49;11.23;;;6.25;;
21034;SDS011;10676;50.848;3.272;2022-09-09T00:38:31;11.63;;;6.43;;
21034;SDS011;10676;50.848;3.272;2022-09-09T00:43:37;9.77;;;6.22;;
21034;SDS011;10676;50.848;3.272;2022-09-09T00:46:11;12.82;;;6.28;;
21034;SDS011;10676;50.848;3.272;2022-09-09T00:51:37;9.43;;;6.05;;
21034;SDS011;10676;50.848;3.272;2022-09-09T00:59:44;9.75;;;5.43;;
21034;SDS011;10676;50.848;3.272;2022-09-09T01:02:14;12.30;;;5.70;;
21034;SDS011;10676;50.848;3.272;2022-09-09T01:04:50;13.07;;;5.72;;
21034;SDS011;10676;50.848;3.272;2022-09-09T01:07:17;11.82;;;5.38;;
21034;SDS011;10676;50.848;3.272;2022-09-09T01:12:23;8.07;;;5.80;;
21034;SDS011;10676;50.848;3.272;2022-09-09T01:14:54;8.93;;;6.20;;
21034;SDS011;10676;50.848;3.272;2022-09-09T01:17:33;10.30;;;6.05;;
21034;SDS011;10676;50.848;3.272;2022-09-09T01:20:12;11.02;;;5.65;;
21034;SDS011;10676;50.848;3.272;2022-09-09T01:23:02;12.75;;;5.93;;
21034;SDS011;10676;50.848;3.272;2022-09-09T01:26:18;11.02;;;6.30;;
21034;SDS011;10676;50.848;3.272;2022-09-09T01:28:36;7.75;;;6.47;;
21034;SDS011;10676;50.848;3.272;2022-09-09T01:31:03;13.80;;;6.50;;
21034;SDS011;10676;50.848;3.272;2022-09-09T01:33:31;9.75;;;5.88;;
21034;SDS011;10676;50.848;3.272;2022-09-09T01:36:01;15.45;;;5.68;;
21034;SDS011;10676;50.848;3.272;2022-09-09T01:38:30;13.15;;;5.97;;
21034;SDS011;10676;50.848;3.272;2022-09-09T01:40:57;12.52;;;6.00;;
21034;SDS011;10676;50.848;3.272;2022-09-09T01:43:23;14.68;;;5.97;;
21034;SDS011;10676;50.848;3.272;2022-09-09T01:45:51;9.20;;;5.53;;
21034;SDS011;10676;50.848;3.272;2022-09-09T01:48:19;9.20;;;5.63;;
21034;SDS011;10676;50.848;3.272;2022-09-09T01:50:46;9.10;;;5.97;;
21034;SDS011;10676;50.848;3.272;2022-09-09T01:53:12;8.75;;;5.38;;
21034;SDS011;10676;50.848;3.272;2022-09-09T01:55:41;13.18;;;5.78;;
21034;SDS011;10676;50.848;3.272;2022-09-09T02:01:16;11.75;;;5.07;;
21034;SDS011;10676;50.848;3.272;2022-09-09T02:03:44;12.45;;;5.57;;
21034;SDS011;10676;50.848;3.272;2022-09-09T02:06:30;8.15;;;4.90;;
21034;SDS011;10676;50.848;3.272;2022-09-09T02:09:01;7.82;;;5.30;;
21034;SDS011;10676;50.848;3.272;2022-09-09T02:11:29;15.38;;;5.38;;
21034;SDS011;10676;50.848;3.272;2022-09-09T02:19:22;12.82;;;5.32;;
21034;SDS011;10676;50.848;3.272;2022-09-09T02:21:52;16.63;;;5.65;;
21034;SDS011;10676;50.848;3.272;2022-09-09T02:24:20;13.93;;;5.72;;
21034;SDS011;10676;50.848;3.272;2022-09-09T02:26:47;18.38;;;6.28;;
21034;SDS011;10676;50.848;3.272;2022-09-09T02:29:22;19.63;;;5.80;;
21034;SDS011;10676;50.848;3.272;2022-09-09T02:31:53;20.05;;;6.10;;
21034;SDS011;10676;50.848;3.272;2022-09-09T02:34:23;17.90;;;6.15;;
21034;SDS011;10676;50.848;3.272;2022-09-09T02:36:50;12.63;;;5.75;;
21034;SDS011;10676;50.848;3.272;2022-09-09T02:39:18;22.25;;;6.43;;
21034;SDS011;10676;50.848;3.272;2022-09-09T02:41:44;20.83;;;5.95;;
21034;SDS011;10676;50.848;3.272;2022-09-09T02:44:18;19.23;;;6.55;;
21034;SDS011;10676;50.848;3.272;2022-09-09T02:54:56;24.80;;;7.03;;
21034;SDS011;10676;50.848;3.272;2022-09-09T02:57:27;22.50;;;6.93;;
21034;SDS011;10676;50.848;3.272;2022-09-09T02:59:56;19.48;;;6.57;;
21034;SDS011;10676;50.848;3.272;2022-09-09T03:02:23;20.65;;;6.25;;
21034;SDS011;10676;50.848;3.272;2022-09-09T03:04:50;16.65;;;6.78;;
21034;SDS011;10676;50.848;3.272;2022-09-09T03:07:17;18.33;;;6.22;;
21034;SDS011;10676;50.848;3.272;2022-09-09T03:09:43;16.63;;;6.60;;
21034;SDS011;10676;50.848;3.272;2022-09-09T03:12:09;21.60;;;6.63;;
21034;SDS011;10676;50.848;3.272;2022-09-09T03:14:36;22.48;;;6.20;;
21034;SDS011;10676;50.848;3.272;2022-09-09T03:17:03;20.15;;;6.25;;
21034;SDS011;10676;50.848;3.272;2022-09-09T03:19:29;14.05;;;5.88;;
21034;SDS011;10676;50.848;3.272;2022-09-09T03:21:56;22.45;;;6.28;;
21034;SDS011;10676;50.848;3.272;2022-09-09T03:24:23;18.70;;;5.80;;
21034;SDS011;10676;50.848;3.272;2022-09-09T03:26:49;23.92;;;6.70;;
21034;SDS011;10676;50.848;3.272;2022-09-09T03:29:15;25.75;;;6.35;;
21034;SDS011;10676;50.848;3.272;2022-09-09T03:31:42;18.75;;;6.43;;
21034;SDS011;10676;50.848;3.272;2022-09-09T03:34:08;14.95;;;6.15;;
21034;SDS011;10676;50.848;3.272;2022-09-09T03:36:35;22.63;;;6.07;;
21034;SDS011;10676;50.848;3.272;2022-09-09T03:39:01;20.10;;;6.47;;
21034;SDS011;10676;50.848;3.272;2022-09-09T03:41:28;20.50;;;7.20;;
21034;SDS011;10676;50.848;3.272;2022-09-09T03:43:54;30.55;;;7.45;;
21034;SDS011;10676;50.848;3.272;2022-09-09T03:46:21;23.90;;;6.97;;
21034;SDS011;10676;50.848;3.272;2022-09-09T03:48:48;14.48;;;6.75;;
21034;SDS011;10676;50.848;3.272;2022-09-09T03:51:14;17.27;;;6.80;;
21034;SDS011;10676;50.848;3.272;2022-09-09T03:53:41;21.73;;;7.05;;
21034;SDS011;10676;50.848;3.272;2022-09-09T03:56:08;22.95;;;7.47;;
21034;SDS011;10676;50.848;3.272;2022-09-09T03:58:34;20.50;;;7.22;;
21034;SDS011;10676;50.848;3.272;2022-09-09T04:01:10;22.70;;;7.47;;
21034;SDS011;10676;50.848;3.272;2022-09-09T04:03:42;20.50;;;7.45;;
21034;SDS011;10676;50.848;3.272;2022-09-09T04:06:08;21.15;;;8.15;;
21034;SDS011;10676;50.848;3.272;2022-09-09T04:08:35;16.17;;;8.57;;
21034;SDS011;10676;50.848;3.272;2022-09-09T04:11:01;14.35;;;7.63;;
21034;SDS011;10676;50.848;3.272;2022-09-09T04:13:31;21.42;;;9.20;;
21034;SDS011;10676;50.848;3.272;2022-09-09T04:15:59;20.40;;;8.23;;
21034;SDS011;10676;50.848;3.272;2022-09-09T04:18:26;15.75;;;8.43;;
21034;SDS011;10676;50.848;3.272;2022-09-09T04:20:55;23.60;;;8.63;;
21034;SDS011;10676;50.848;3.272;2022-09-09T04:23:25;20.70;;;8.95;;
21034;SDS011;10676;50.848;3.272;2022-09-09T04:25:54;19.40;;;8.02;;
21034;SDS011;10676;50.848;3.272;2022-09-09T04:28:21;19.02;;;8.40;;
21034;SDS011;10676;50.848;3.272;2022-09-09T04:30:48;20.63;;;8.70;;
21034;SDS011;10676;50.848;3.272;2022-09-09T04:33:14;18.30;;;8.73;;
21034;SDS011;10676;50.848;3.272;2022-09-09T04:35:45;17.08;;;8.23;;
21034;SDS011;10676;50.848;3.272;2022-09-09T04:38:13;13.75;;;6.80;;
21034;SDS011;10676;50.848;3.272;2022-09-09T04:40:42;16.92;;;6.50;;
21034;SDS011;10676;50.848;3.272;2022-09-09T04:43:08;18.67;;;7.85;;
21034;SDS011;10676;50.848;3.272;2022-09-09T04:45:34;21.77;;;8.07;;
21034;SDS011;10676;50.848;3.272;2022-09-09T04:48:00;17.63;;;7.15;;
21034;SDS011;10676;50.848;3.272;2022-09-09T04:50:27;20.35;;;8.20;;
21034;SDS011;10676;50.848;3.272;2022-09-09T04:52:53;23.88;;;7.20;;
21034;SDS011;10676;50.848;3.272;2022-09-09T04:55:19;22.65;;;6.88;;
21034;SDS011;10676;50.848;3.272;2022-09-09T04:57:45;19.30;;;6.90;;
21034;SDS011;10676;50.848;3.272;2022-09-09T05:00:11;18.38;;;7.38;;
21034;SDS011;10676;50.848;3.272;2022-09-09T05:02:38;20.17;;;6.70;;
21034;SDS011;10676;50.848;3.272;2022-09-09T05:05:04;16.08;;;6.93;;
21034;SDS011;10676;50.848;3.272;2022-09-09T05:07:31;17.40;;;7.18;;
21034;SDS011;10676;50.848;3.272;2022-09-09T05:09:57;20.33;;;7.30;;
21034;SDS011;10676;50.848;3.272;2022-09-09T05:12:23;19.15;;;7.88;;
21034;SDS011;10676;50.848;3.272;2022-09-09T05:14:50;16.85;;;6.55;;
21034;SDS011;10676;50.848;3.272;2022-09-09T05:17:17;24.52;;;7.45;;
21034;SDS011;10676;50.848;3.272;2022-09-09T05:19:42;21.50;;;8.25;;
21034;SDS011;10676;50.848;3.272;2022-09-09T05:22:09;18.80;;;8.10;;
21034;SDS011;10676;50.848;3.272;2022-09-09T05:24:36;17.23;;;7.00;;
21034;SDS011;10676;50.848;3.272;2022-09-09T05:27:03;17.60;;;8.00;;
21034;SDS011;10676;50.848;3.272;2022-09-09T05:29:31;24.17;;;8.02;;
21034;SDS011;10676;50.848;3.272;2022-09-09T05:31:58;15.63;;;6.93;;
21034;SDS011;10676;50.848;3.272;2022-09-09T05:34:24;16.05;;;7.78;;
21034;SDS011;10676;50.848;3.272;2022-09-09T05:36:50;25.73;;;7.65;;
21034;SDS011;10676;50.848;3.272;2022-09-09T05:39:17;19.80;;;7.10;;
21034;SDS011;10676;50.848;3.272;2022-09-09T05:41:42;16.98;;;7.68;;
21034;SDS011;10676;50.848;3.272;2022-09-09T05:44:08;21.02;;;7.45;;
21034;SDS011;10676;50.848;3.272;2022-09-09T05:46:34;22.88;;;7.10;;
21034;SDS011;10676;50.848;3.272;2022-09-09T05:48:59;18.23;;;7.00;;
21034;SDS011;10676;50.848;3.272;2022-09-09T05:51:27;15.75;;;6.80;;
21034;SDS011;10676;50.848;3.272;2022-09-09T05:53:55;18.60;;;7.53;;
21034;SDS011;10676;50.848;3.272;2022-09-09T05:56:24;18.38;;;7.75;;
21034;SDS011;10676;50.848;3.272;2022-09-09T05:58:51;19.23;;;7.38;;
21034;SDS011;10676;50.848;3.272;2022-09-09T06:01:22;21.77;;;7.55;;
21034;SDS011;10676;50.848;3.272;2022-09-09T06:03:51;23.02;;;7.50;;
21034;SDS011;10676;50.848;3.272;2022-09-09T06:06:21;18.42;;;7.13;;
21034;SDS011;10676;50.848;3.272;2022-09-09T06:08:51;21.27;;;7.30;;
21034;SDS011;10676;50.848;3.272;2022-09-09T06:11:25;16.92;;;7.43;;
21034;SDS011;10676;50.848;3.272;2022-09-09T06:13:53;21.65;;;7.45;;
21034;SDS011;10676;50.848;3.272;2022-09-09T06:16:20;26.83;;;8.00;;
21034;SDS011;10676;50.848;3.272;2022-09-09T06:18:50;23.63;;;6.45;;
21034;SDS011;10676;50.848;3.272;2022-09-09T06:21:22;13.55;;;6.75;;
21034;SDS011;10676;50.848;3.272;2022-09-09T06:23:52;17.27;;;6.75;;
21034;SDS011;10676;50.848;3.272;2022-09-09T06:26:19;23.58;;;7.30;;
21034;SDS011;10676;50.848;3.272;2022-09-09T06:28:46;19.42;;;7.00;;
21034;SDS011;10676;50.848;3.272;2022-09-09T06:31:13;19.55;;;6.63;;
21034;SDS011;10676;50.848;3.272;2022-09-09T06:33:42;19.08;;;6.75;;
21034;SDS011;10676;50.848;3.272;2022-09-09T06:36:13;18.80;;;7.47;;
21034;SDS011;10676;50.848;3.272;2022-09-09T06:38:43;24.70;;;7.78;;
21034;SDS011;10676;50.848;3.272;2022-09-09T06:41:10;18.05;;;7.20;;
21034;SDS011;10676;50.848;3.272;2022-09-09T06:43:37;16.10;;;6.43;;
21034;SDS011;10676;50.848;3.272;2022-09-09T06:46:36;18.50;;;6.07;;
21034;SDS011;10676;50.848;3.272;2022-09-09T06:48:58;13.65;;;6.43;;
21034;SDS011;10676;50.848;3.272;2022-09-09T06:51:26;16.20;;;6.70;;
21034;SDS011;10676;50.848;3.272;2022-09-09T06:53:54;19.67;;;6.57;;
21034;SDS011;10676;50.848;3.272;2022-09-09T06:58:53;19.08;;;6.90;;
21034;SDS011;10676;50.848;3.272;2022-09-09T07:01:30;15.32;;;6.97;;
21034;SDS011;10676;50.848;3.272;2022-09-09T07:04:00;19.67;;;6.55;;
21034;SDS011;10676;50.848;3.272;2022-09-09T07:06:30;23.38;;;7.03;;
21034;SDS011;10676;50.848;3.272;2022-09-09T07:09:01;17.08;;;7.60;;
21034;SDS011;10676;50.848;3.272;2022-09-09T07:11:30;21.92;;;6.85;;
21034;SDS011;10676;50.848;3.272;2022-09-09T07:13:58;21.10;;;6.78;;
21034;SDS011;10676;50.848;3.272;2022-09-09T07:16:25;15.38;;;7.15;;
21034;SDS011;10676;50.848;3.272;2022-09-09T07:18:52;19.05;;;7.35;;
21034;SDS011;10676;50.848;3.272;2022-09-09T07:21:22;19.70;;;7.10;;
21034;SDS011;10676;50.848;3.272;2022-09-09T07:23:49;16.02;;;6.60;;
21034;SDS011;10676;50.848;3.272;2022-09-09T07:26:19;16.20;;;6.32;;
21034;SDS011;10676;50.848;3.272;2022-09-09T07:28:46;21.75;;;6.70;;
21034;SDS011;10676;50.848;3.272;2022-09-09T07:31:20;12.15;;;6.82;;
21034;SDS011;10676;50.848;3.272;2022-09-09T07:33:51;12.48;;;6.30;;
21034;SDS011;10676;50.848;3.272;2022-09-09T07:36:18;17.40;;;6.05;;
21034;SDS011;10676;50.848;3.272;2022-09-09T07:38:49;16.08;;;5.80;;
21034;SDS011;10676;50.848;3.272;2022-09-09T07:41:26;19.08;;;6.07;;
21034;SDS011;10676;50.848;3.272;2022-09-09T07:43:52;14.25;;;5.80;;
21034;SDS011;10676;50.848;3.272;2022-09-09T07:46:20;12.00;;;5.97;;
21034;SDS011;10676;50.848;3.272;2022-09-09T07:48:51;12.35;;;5.63;;
21034;SDS011;10676;50.848;3.272;2022-09-09T07:51:29;12.02;;;5.80;;
21034;SDS011;10676;50.848;3.272;2022-09-09T07:54:00;16.58;;;5.82;;
21034;SDS011;10676;50.848;3.272;2022-09-09T07:56:28;13.23;;;5.88;;
21034;SDS011;10676;50.848;3.272;2022-09-09T07:58:55;14.63;;;6.20;;
21034;SDS011;10676;50.848;3.272;2022-09-09T08:01:29;17.63;;;5.55;;
21034;SDS011;10676;50.848;3.272;2022-09-09T08:04:00;16.40;;;5.72;;
21034;SDS011;10676;50.848;3.272;2022-09-09T08:06:28;17.30;;;5.75;;
21034;SDS011;10676;50.848;3.272;2022-09-09T08:08:59;11.77;;;5.47;;
21034;SDS011;10676;50.848;3.272;2022-09-09T08:11:26;13.57;;;5.30;;
21034;SDS011;10676;50.848;3.272;2022-09-09T08:13:53;14.23;;;5.22;;
21034;SDS011;10676;50.848;3.272;2022-09-09T08:16:23;19.70;;;6.32;;
21034;SDS011;10676;50.848;3.272;2022-09-09T08:18:50;10.48;;;5.40;;
21034;SDS011;10676;50.848;3.272;2022-09-09T08:21:18;16.77;;;5.50;;
21034;SDS011;10676;50.848;3.272;2022-09-09T08:23:46;12.90;;;5.93;;
21034;SDS011;10676;50.848;3.272;2022-09-09T08:26:17;13.10;;;5.47;;
21034;SDS011;10676;50.848;3.272;2022-09-09T08:28:46;10.63;;;5.47;;
21034;SDS011;10676;50.848;3.272;2022-09-09T08:31:13;12.73;;;5.75;;
21034;SDS011;10676;50.848;3.272;2022-09-09T08:33:41;11.15;;;5.38;;
21034;SDS011;10676;50.848;3.272;2022-09-09T08:36:11;11.55;;;5.18;;
21034;SDS011;10676;50.848;3.272;2022-09-09T08:38:38;14.77;;;5.63;;
21034;SDS011;10676;50.848;3.272;2022-09-09T08:41:07;11.93;;;5.13;;
21034;SDS011;10676;50.848;3.272;2022-09-09T08:43:48;8.55;;;5.45;;
21034;SDS011;10676;50.848;3.272;2022-09-09T08:55:17;9.25;;;4.65;;
21034;SDS011;10676;50.848;3.272;2022-09-09T08:58:02;8.27;;;3.22;;
21034;SDS011;10676;50.848;3.272;2022-09-09T09:12:02;6.90;;;3.45;;
21034;SDS011;10676;50.848;3.272;2022-09-09T09:14:43;7.93;;;3.47;;
21034;SDS011;10676;50.848;3.272;2022-09-09T09:17:29;7.82;;;6.72;;
21034;SDS011;10676;50.848;3.272;2022-09-09T09:19:58;6.95;;;3.75;;
21034;SDS011;10676;50.848;3.272;2022-09-09T09:25:00;8.65;;;5.90;;
21034;SDS011;10676;50.848;3.272;2022-09-09T09:30:36;8.57;;;4.72;;
21034;SDS011;10676;50.848;3.272;2022-09-09T09:35:51;7.03;;;4.25;;
21034;SDS011;10676;50.848;3.272;2022-09-09T09:38:20;6.05;;;3.50;;
21034;SDS011;10676;50.848;3.272;2022-09-09T09:40:57;4.95;;;3.88;;
21034;SDS011;10676;50.848;3.272;2022-09-09T09:43:27;6.90;;;3.53;;
21034;SDS011;10676;50.848;3.272;2022-09-09T09:46:00;5.20;;;4.50;;
21034;SDS011;10676;50.848;3.272;2022-09-09T09:48:29;4.28;;;3.30;;
21034;SDS011;10676;50.848;3.272;2022-09-09T09:50:59;4.57;;;4.07;;
21034;SDS011;10676;50.848;3.272;2022-09-09T09:53:31;4.93;;;4.63;;
21034;SDS011;10676;50.848;3.272;2022-09-09T09:56:02;7.15;;;5.53;;
21034;SDS011;10676;50.848;3.272;2022-09-09T10:03:57;4.28;;;2.95;;
21034;SDS011;10676;50.848;3.272;2022-09-09T10:06:34;6.15;;;4.40;;
21034;SDS011;10676;50.848;3.272;2022-09-09T10:09:24;4.10;;;2.85;;
21034;SDS011;10676;50.848;3.272;2022-09-09T10:11:53;6.95;;;3.45;;
21034;SDS011;10676;50.848;3.272;2022-09-09T10:15:20;4.47;;;4.07;;
21034;SDS011;10676;50.848;3.272;2022-09-09T10:22:43;5.28;;;4.78;;
21034;SDS011;10676;50.848;3.272;2022-09-09T10:28:46;4.85;;;4.25;;
21034;SDS011;10676;50.848;3.272;2022-09-09T10:36:43;5.68;;;4.07;;
21034;SDS011;10676;50.848;3.272;2022-09-09T10:50:48;4.40;;;4.00;;
21034;SDS011;10676;50.848;3.272;2022-09-09T10:53:24;5.32;;;3.78;;
21034;SDS011;10676;50.848;3.272;2022-09-09T10:56:12;5.15;;;4.65;;
21034;SDS011;10676;50.848;3.272;2022-09-09T11:01:14;5.55;;;5.15;;
21034;SDS011;10676;50.848;3.272;2022-09-09T11:03:50;6.93;;;6.28;;
21034;SDS011;10676;50.848;3.272;2022-09-09T11:06:34;3.72;;;3.45;;
21034;SDS011;10676;50.848;3.272;2022-09-09T11:09:05;4.90;;;4.50;;
21034;SDS011;10676;50.848;3.272;2022-09-09T11:11:39;6.25;;;5.15;;
21034;SDS011;10676;50.848;3.272;2022-09-09T11:14:19;4.97;;;3.53;;
21034;SDS011;10676;50.848;3.272;2022-09-09T11:17:01;5.95;;;3.78;;
21034;SDS011;10676;50.848;3.272;2022-09-09T11:19:38;4.90;;;3.70;;
21034;SDS011;10676;50.848;3.272;2022-09-09T11:22:14;6.13;;;5.72;;
21034;SDS011;10676;50.848;3.272;2022-09-09T11:35:40;6.22;;;5.80;;
21034;SDS011;10676;50.848;3.272;2022-09-09T11:38:45;6.53;;;5.82;;
21034;SDS011;10676;50.848;3.272;2022-09-09T11:41:12;5.88;;;5.40;;
21034;SDS011;10676;50.848;3.272;2022-09-09T11:43:43;6.28;;;5.95;;
21034;SDS011;10676;50.848;3.272;2022-09-09T11:46:16;4.80;;;4.50;;
21034;SDS011;10676;50.848;3.272;2022-09-09T11:49:02;4.50;;;3.95;;
21034;SDS011;10676;50.848;3.272;2022-09-09T11:51:30;4.20;;;3.85;;
21034;SDS011;10676;50.848;3.272;2022-09-09T11:53:58;4.32;;;3.92;;
21034;SDS011;10676;50.848;3.272;2022-09-09T11:59:19;4.22;;;3.80;;
21034;SDS011;10676;50.848;3.272;2022-09-09T12:02:02;4.40;;;4.15;;
21034;SDS011;10676;50.848;3.272;2022-09-09T12:04:43;4.80;;;4.50;;
21034;SDS011;10676;50.848;3.272;2022-09-09T12:07:33;4.50;;;4.20;;
21034;SDS011;10676;50.848;3.272;2022-09-09T12:12:37;6.07;;;4.47;;
21034;SDS011;10676;50.848;3.272;2022-09-09T12:15:25;3.85;;;3.55;;
21034;SDS011;10676;50.848;3.272;2022-09-09T12:17:54;4.47;;;4.20;;
21034;SDS011;10676;50.848;3.272;2022-09-09T12:33:53;6.15;;;5.60;;
21034;SDS011;10676;50.848;3.272;2022-09-09T12:36:19;5.57;;;5.07;;
21034;SDS011;10676;50.848;3.272;2022-09-09T12:38:54;6.20;;;5.60;;
21034;SDS011;10676;50.848;3.272;2022-09-09T12:41:27;5.60;;;4.28;;
21034;SDS011;10676;50.848;3.272;2022-09-09T12:44:03;6.57;;;6.18;;
21034;SDS011;10676;50.848;3.272;2022-09-09T12:49:36;5.97;;;5.50;;
21034;SDS011;10676;50.848;3.272;2022-09-09T12:52:06;5.13;;;4.75;;
21034;SDS011;10676;50.848;3.272;2022-09-09T12:54:44;5.47;;;4.95;;
21034;SDS011;10676;50.848;3.272;2022-09-09T12:57:11;5.22;;;4.72;;
21034;SDS011;10676;50.848;3.272;2022-09-09T12:59:39;6.22;;;5.82;;
21034;SDS011;10676;50.848;3.272;2022-09-09T13:02:23;5.20;;;4.80;;
21034;SDS011;10676;50.848;3.272;2022-09-09T13:04:51;6.93;;;6.32;;
21034;SDS011;10676;50.848;3.272;2022-09-09T13:07:19;7.60;;;5.25;;
21034;SDS011;10676;50.848;3.272;2022-09-09T13:09:46;6.57;;;6.00;;
21034;SDS011;10676;50.848;3.272;2022-09-09T13:12:18;10.85;;;10.05;;
21034;SDS011;10676;50.848;3.272;2022-09-09T13:14:47;10.63;;;9.88;;
21034;SDS011;10676;50.848;3.272;2022-09-09T13:17:22;11.63;;;10.90;;
21034;SDS011;10676;50.848;3.272;2022-09-09T13:19:50;10.52;;;9.82;;
21034;SDS011;10676;50.848;3.272;2022-09-09T13:22:34;10.18;;;9.27;;
21034;SDS011;10676;50.848;3.272;2022-09-09T13:25:21;11.20;;;10.40;;
21034;SDS011;10676;50.848;3.272;2022-09-09T13:27:53;10.57;;;9.90;;
21034;SDS011;10676;50.848;3.272;2022-09-09T13:30:27;14.25;;;13.27;;
21034;SDS011;10676;50.848;3.272;2022-09-09T13:35:30;12.40;;;11.50;;
21034;SDS011;10676;50.848;3.272;2022-09-09T13:37:57;12.85;;;12.07;;
21034;SDS011;10676;50.848;3.272;2022-09-09T13:40:24;12.40;;;11.32;;
21034;SDS011;10676;50.848;3.272;2022-09-09T13:42:54;11.35;;;10.65;;
21034;SDS011;10676;50.848;3.272;2022-09-09T13:45:22;11.20;;;10.60;;
21034;SDS011;10676;50.848;3.272;2022-09-09T13:47:51;11.38;;;10.57;;
21034;SDS011;10676;50.848;3.272;2022-09-09T13:52:46;9.30;;;8.32;;
21034;SDS011;10676;50.848;3.272;2022-09-09T13:55:18;11.70;;;10.65;;
21034;SDS011;10676;50.848;3.272;2022-09-09T13:58:03;26.45;;;24.70;;
21034;SDS011;10676;50.848;3.272;2022-09-09T14:00:31;23.15;;;21.65;;
21034;SDS011;10676;50.848;3.272;2022-09-09T14:02:58;11.23;;;10.52;;
21034;SDS011;10676;50.848;3.272;2022-09-09T14:05:27;14.02;;;13.13;;
21034;SDS011;10676;50.848;3.272;2022-09-09T14:07:56;12.65;;;11.80;;
21034;SDS011;10676;50.848;3.272;2022-09-09T14:10:22;13.93;;;12.80;;
21034;SDS011;10676;50.848;3.272;2022-09-09T14:12:48;16.60;;;15.77;;
21034;SDS011;10676;50.848;3.272;2022-09-09T14:15:14;10.50;;;9.90;;
21034;SDS011;10676;50.848;3.272;2022-09-09T14:17:40;11.80;;;11.25;;
21034;SDS011;10676;50.848;3.272;2022-09-09T14:20:06;13.98;;;13.15;;
21034;SDS011;10676;50.848;3.272;2022-09-09T14:22:33;10.50;;;9.75;;
21034;SDS011;10676;50.848;3.272;2022-09-09T14:24:58;10.48;;;9.88;;
21034;SDS011;10676;50.848;3.272;2022-09-09T14:27:24;10.63;;;9.90;;
21034;SDS011;10676;50.848;3.272;2022-09-09T14:29:51;12.02;;;11.05;;
21034;SDS011;10676;50.848;3.272;2022-09-09T14:32:17;11.40;;;10.35;;
21034;SDS011;10676;50.848;3.272;2022-09-09T14:34:43;11.40;;;10.80;;
21034;SDS011;10676;50.848;3.272;2022-09-09T14:37:09;11.38;;;10.27;;
21034;SDS011;10676;50.848;3.272;2022-09-09T14:39:35;11.18;;;10.48;;
21034;SDS011;10676;50.848;3.272;2022-09-09T14:42:01;10.13;;;9.50;;
21034;SDS011;10676;50.848;3.272;2022-09-09T14:44:27;9.45;;;8.68;;
21034;SDS011;10676;50.848;3.272;2022-09-09T14:46:53;8.75;;;8.25;;
21034;SDS011;10676;50.848;3.272;2022-09-09T14:49:19;9.05;;;8.50;;
21034;SDS011;10676;50.848;3.272;2022-09-09T14:51:45;9.05;;;8.35;;
21034;SDS011;10676;50.848;3.272;2022-09-09T14:54:11;9.95;;;9.15;;
21034;SDS011;10676;50.848;3.272;2022-09-09T14:56:37;9.38;;;8.88;;
21034;SDS011;10676;50.848;3.272;2022-09-09T14:59:03;10.52;;;9.60;;
21034;SDS011;10676;50.848;3.272;2022-09-09T15:01:30;10.05;;;9.30;;
21034;SDS011;10676;50.848;3.272;2022-09-09T15:03:57;12.55;;;11.43;;
21034;SDS011;10676;50.848;3.272;2022-09-09T15:06:25;16.55;;;14.88;;
21034;SDS011;10676;50.848;3.272;2022-09-09T15:08:55;7.53;;;6.97;;
21034;SDS011;10676;50.848;3.272;2022-09-09T15:11:23;4.13;;;4.00;;
21034;SDS011;10676;50.848;3.272;2022-09-09T15:13:51;4.30;;;4.03;;
21034;SDS011;10676;50.848;3.272;2022-09-09T15:16:18;5.10;;;4.80;;
21034;SDS011;10676;50.848;3.272;2022-09-09T15:18:45;5.68;;;4.95;;
21034;SDS011;10676;50.848;3.272;2022-09-09T15:21:12;4.43;;;4.13;;
21034;SDS011;10676;50.848;3.272;2022-09-09T15:23:40;5.20;;;4.90;;
21034;SDS011;10676;50.848;3.272;2022-09-09T15:26:07;4.80;;;4.50;;
21034;SDS011;10676;50.848;3.272;2022-09-09T15:28:34;4.68;;;4.28;;
21034;SDS011;10676;50.848;3.272;2022-09-09T15:31:04;9.70;;;4.35;;
21034;SDS011;10676;50.848;3.272;2022-09-09T15:33:32;2.92;;;2.72;;
21034;SDS011;10676;50.848;3.272;2022-09-09T15:35:58;3.30;;;3.05;;
21034;SDS011;10676;50.848;3.272;2022-09-09T15:38:24;2.60;;;2.40;;
21034;SDS011;10676;50.848;3.272;2022-09-09T15:40:53;5.45;;;5.05;;
21034;SDS011;10676;50.848;3.272;2022-09-09T15:43:20;7.53;;;6.93;;
21034;SDS011;10676;50.848;3.272;2022-09-09T15:45:48;8.70;;;8.05;;
21034;SDS011;10676;50.848;3.272;2022-09-09T15:48:26;9.43;;;8.70;;
21034;SDS011;10676;50.848;3.272;2022-09-09T15:51:03;9.13;;;8.63;;
21034;SDS011;10676;50.848;3.272;2022-09-09T15:53:30;9.65;;;8.85;;
21034;SDS011;10676;50.848;3.272;2022-09-09T15:55:57;9.38;;;8.65;;
21034;SDS011;10676;50.848;3.272;2022-09-09T15:58:23;14.10;;;13.10;;
21034;SDS011;10676;50.848;3.272;2022-09-09T16:00:49;15.32;;;14.38;;
21034;SDS011;10676;50.848;3.272;2022-09-09T16:03:14;12.82;;;11.93;;
21034;SDS011;10676;50.848;3.272;2022-09-09T16:05:40;5.95;;;5.28;;
21034;SDS011;10676;50.848;3.272;2022-09-09T16:08:06;8.88;;;7.63;;
21034;SDS011;10676;50.848;3.272;2022-09-09T16:10:32;9.50;;;8.70;;
21034;SDS011;10676;50.848;3.272;2022-09-09T16:12:57;8.30;;;7.32;;
21034;SDS011;10676;50.848;3.272;2022-09-09T16:15:23;6.70;;;6.10;;
21034;SDS011;10676;50.848;3.272;2022-09-09T16:17:52;8.35;;;7.15;;
21034;SDS011;10676;50.848;3.272;2022-09-09T16:20:18;7.68;;;5.55;;
21034;SDS011;10676;50.848;3.272;2022-09-09T16:22:45;8.25;;;6.97;;
21034;SDS011;10676;50.848;3.272;2022-09-09T16:25:11;9.65;;;5.15;;
21034;SDS011;10676;50.848;3.272;2022-09-09T16:27:37;9.10;;;5.60;;
21034;SDS011;10676;50.848;3.272;2022-09-09T16:30:03;8.20;;;5.88;;
21034;SDS011;10676;50.848;3.272;2022-09-09T16:32:29;11.25;;;5.93;;
21034;SDS011;10676;50.848;3.272;2022-09-09T16:34:54;9.23;;;6.90;;
21034;SDS011;10676;50.848;3.272;2022-09-09T16:37:21;8.35;;;5.93;;
21034;SDS011;10676;50.848;3.272;2022-09-09T16:39:46;11.48;;;5.05;;
21034;SDS011;10676;50.848;3.272;2022-09-09T16:42:12;9.98;;;9.02;;
21034;SDS011;10676;50.848;3.272;2022-09-09T16:44:38;7.22;;;5.22;;
21034;SDS011;10676;50.848;3.272;2022-09-09T16:47:03;6.90;;;6.07;;
21034;SDS011;10676;50.848;3.272;2022-09-09T16:49:29;6.75;;;6.03;;
21034;SDS011;10676;50.848;3.272;2022-09-09T16:51:56;12.73;;;7.53;;
21034;SDS011;10676;50.848;3.272;2022-09-09T16:54:23;8.70;;;8.07;;
21034;SDS011;10676;50.848;3.272;2022-09-09T16:56:52;8.38;;;6.63;;
21034;SDS011;10676;50.848;3.272;2022-09-09T16:59:18;8.93;;;5.10;;
21034;SDS011;10676;50.848;3.272;2022-09-09T17:01:46;7.38;;;5.00;;
21034;SDS011;10676;50.848;3.272;2022-09-09T17:04:14;7.97;;;7.18;;
21034;SDS011;10676;50.848;3.272;2022-09-09T17:06:49;14.32;;;9.35;;
21034;SDS011;10676;50.848;3.272;2022-09-09T17:09:16;9.57;;;7.35;;
21034;SDS011;10676;50.848;3.272;2022-09-09T17:11:43;7.25;;;4.85;;
21034;SDS011;10676;50.848;3.272;2022-09-09T17:14:11;10.90;;;5.50;;
21034;SDS011;10676;50.848;3.272;2022-09-09T17:16:40;10.15;;;5.10;;
21034;SDS011;10676;50.848;3.272;2022-09-09T17:19:06;13.40;;;5.55;;
21034;SDS011;10676;50.848;3.272;2022-09-09T17:21:33;10.43;;;4.43;;